sensor_id;sensor_type;location;lat;lon;timestamp;temperature;humidity
19892;DHT22;10108;50.142;8.724;2022-09-09T00:01:37;18.20;99.90
19892;DHT22;10108;50.142;8.724;2022-09-09T00:06:56;18.20;99.90
19892;DHT22;10108;50.142;8.724;2022-09-09T00:09:30;18.20;99.90
19892;DHT22;10108;50.142;8.724;2022-09-09T00:20:32;18.30;99.90
19892;DHT22;10108;50.142;8.724;2022-09-09T00:23:14;18.40;99.90
19892;DHT22;10108;50.142;8.724;2022-09-09T00:25:49;18.40;99.90
19892;DHT22;10108;50.142;8.724;2022-09-09T00:28:23;18.40;99.90
19892;DHT22;10108;50.142;8.724;2022-09-09T00:30:50;18.40;99.90
19892;DHT22;10108;50.142;8.724;2022-09-09T00:33:19;18.40;99.90
19892;DHT22;10108;50.142;8.724;2022-09-09T00:35:51;18.40;99.90
19892;DHT22;10108;50.142;8.724;2022-09-09T00:43:56;18.40;99.90
19892;DHT22;10108;50.142;8.724;2022-09-09T00:59:52;18.30;99.90
19892;DHT22;10108;50.142;8.724;2022-09-09T01:05:35;18.20;99.90
19892;DHT22;10108;50.142;8.724;2022-09-09T01:08:11;18.20;99.90
19892;DHT22;10108;50.142;8.724;2022-09-09T01:10:49;18.20;99.90
19892;DHT22;10108;50.142;8.724;2022-09-09T01:13:29;18.10;99.90
19892;DHT22;10108;50.142;8.724;2022-09-09T01:16:00;18.10;99.90
19892;DHT22;10108;50.142;8.724;2022-09-09T01:18:30;18.10;99.90
19892;DHT22;10108;50.142;8.724;2022-09-09T01:21:08;18.10;99.90
19892;DHT22;10108;50.142;8.724;2022-09-09T01:26:49;18.10;99.90
19892;DHT22;10108;50.142;8.724;2022-09-09T01:29:24;18.10;99.90
19892;DHT22;10108;50.142;8.724;2022-09-09T01:31:59;18.10;99.90
19892;DHT22;10108;50.142;8.724;2022-09-09T01:34:31;18.10;99.90
19892;DHT22;10108;50.142;8.724;2022-09-09T01:37:06;18.10;99.90
19892;DHT22;10108;50.142;8.724;2022-09-09T01:39:34;18.00;99.90
19892;DHT22;10108;50.142;8.724;2022-09-09T01:42:06;18.00;99.90
19892;DHT22;10108;50.142;8.724;2022-09-09T01:44:34;18.00;99.90
19892;DHT22;10108;50.142;8.724;2022-09-09T01:47:02;18.00;99.90
19892;DHT22;10108;50.142;8.724;2022-09-09T01:49:28;18.00;99.90
19892;DHT22;10108;50.142;8.724;2022-09-09T01:51:56;17.90;99.90
19892;DHT22;10108;50.142;8.724;2022-09-09T01:54:31;17.90;99.90
19892;DHT22;10108;50.142;8.724;2022-09-09T01:57:21;17.80;99.90
19892;DHT22;10108;50.142;8.724;2022-09-09T02:00:11;17.80;99.90
19892;DHT22;10108;50.142;8.724;2022-09-09T02:03:00;17.80;99.90
19892;DHT22;10108;50.142;8.724;2022-09-09T02:05:49;17.80;99.90
19892;DHT22;10108;50.142;8.724;2022-09-09T02:11:14;17.80;99.90
19892;DHT22;10108;50.142;8.724;2022-09-09T02:14:20;17.80;99.90
19892;DHT22;10108;50.142;8.724;2022-09-09T02:16:55;17.80;99.90
19892;DHT22;10108;50.142;8.724;2022-09-09T02:19:49;17.80;99.90
19892;DHT22;10108;50.142;8.724;2022-09-09T02:22:41;17.90;99.90
19892;DHT22;10108;50.142;8.724;2022-09-09T02:25:13;17.90;99.90
19892;DHT22;10108;50.142;8.724;2022-09-09T02:27:43;17.90;99.90
19892;DHT22;10108;50.142;8.724;2022-09-09T02:30:11;17.90;99.90
19892;DHT22;10108;50.142;8.724;2022-09-09T02:32:44;17.90;99.90
19892;DHT22;10108;50.142;8.724;2022-09-09T02:35:16;17.90;99.90
19892;DHT22;10108;50.142;8.724;2022-09-09T02:37:45;18.00;99.90
19892;DHT22;10108;50.142;8.724;2022-09-09T02:40:15;17.90;99.90
19892;DHT22;10108;50.142;8.724;2022-09-09T02:42:47;18.00;99.90
19892;DHT22;10108;50.142;8.724;2022-09-09T02:45:18;18.00;99.90
19892;DHT22;10108;50.142;8.724;2022-09-09T02:48:17;18.10;99.90
19892;DHT22;10108;50.142;8.724;2022-09-09T02:53:23;18.00;99.90
19892;DHT22;10108;50.142;8.724;2022-09-09T02:56:07;18.10;99.90
19892;DHT22;10108;50.142;8.724;2022-09-09T02:58:37;18.10;99.90
19892;DHT22;10108;50.142;8.724;2022-09-09T03:01:05;18.00;99.90
19892;DHT22;10108;50.142;8.724;2022-09-09T03:03:32;18.10;99.90
19892;DHT22;10108;50.142;8.724;2022-09-09T03:06:01;18.10;99.90
19892;DHT22;10108;50.142;8.724;2022-09-09T03:08:28;18.10;99.90
19892;DHT22;10108;50.142;8.724;2022-09-09T03:10:55;18.10;99.90
19892;DHT22;10108;50.142;8.724;2022-09-09T03:13:26;18.10;99.90
19892;DHT22;10108;50.142;8.724;2022-09-09T03:15:52;18.10;99.90
19892;DHT22;10108;50.142;8.724;2022-09-09T03:18:20;18.10;99.90
19892;DHT22;10108;50.142;8.724;2022-09-09T03:20:49;18.20;99.90
19892;DHT22;10108;50.142;8.724;2022-09-09T03:23:17;18.20;99.90
19892;DHT22;10108;50.142;8.724;2022-09-09T03:25:52;18.20;99.90
19892;DHT22;10108;50.142;8.724;2022-09-09T03:28:24;18.10;99.90
19892;DHT22;10108;50.142;8.724;2022-09-09T03:31:01;18.20;99.90
19892;DHT22;10108;50.142;8.724;2022-09-09T03:33:29;18.20;99.90
19892;DHT22;10108;50.142;8.724;2022-09-09T03:35:56;18.20;99.90
19892;DHT22;10108;50.142;8.724;2022-09-09T03:38:23;18.20;99.90
19892;DHT22;10108;50.142;8.724;2022-09-09T03:40:51;18.20;99.90
19892;DHT22;10108;50.142;8.724;2022-09-09T03:43:19;18.20;99.90
19892;DHT22;10108;50.142;8.724;2022-09-09T03:45:47;18.20;99.90
19892;DHT22;10108;50.142;8.724;2022-09-09T03:48:15;18.20;99.90
19892;DHT22;10108;50.142;8.724;2022-09-09T03:50:49;18.10;99.90
19892;DHT22;10108;50.142;8.724;2022-09-09T03:53:16;18.10;99.90
19892;DHT22;10108;50.142;8.724;2022-09-09T03:55:48;18.00;99.90
19892;DHT22;10108;50.142;8.724;2022-09-09T03:58:16;18.00;99.90
19892;DHT22;10108;50.142;8.724;2022-09-09T04:00:54;18.10;99.90
19892;DHT22;10108;50.142;8.724;2022-09-09T04:03:20;18.10;99.90
19892;DHT22;10108;50.142;8.724;2022-09-09T04:05:49;18.00;99.90
19892;DHT22;10108;50.142;8.724;2022-09-09T04:08:15;18.00;99.90
19892;DHT22;10108;50.142;8.724;2022-09-09T04:10:42;18.00;99.90
19892;DHT22;10108;50.142;8.724;2022-09-09T04:13:10;17.90;99.90
19892;DHT22;10108;50.142;8.724;2022-09-09T04:15:37;17.80;99.90
19892;DHT22;10108;50.142;8.724;2022-09-09T04:18:03;17.80;99.90
19892;DHT22;10108;50.142;8.724;2022-09-09T04:20:29;17.80;99.90
19892;DHT22;10108;50.142;8.724;2022-09-09T04:22:56;17.70;99.90
19892;DHT22;10108;50.142;8.724;2022-09-09T04:25:23;17.70;99.90
19892;DHT22;10108;50.142;8.724;2022-09-09T04:27:54;17.70;99.90
19892;DHT22;10108;50.142;8.724;2022-09-09T04:30:21;17.70;99.90
19892;DHT22;10108;50.142;8.724;2022-09-09T04:32:47;17.70;99.90
19892;DHT22;10108;50.142;8.724;2022-09-09T04:35:14;17.70;99.90
19892;DHT22;10108;50.142;8.724;2022-09-09T04:37:40;17.80;99.90
19892;DHT22;10108;50.142;8.724;2022-09-09T04:40:07;17.80;99.90
19892;DHT22;10108;50.142;8.724;2022-09-09T04:42:36;17.80;99.90
19892;DHT22;10108;50.142;8.724;2022-09-09T04:45:03;17.80;99.90
19892;DHT22;10108;50.142;8.724;2022-09-09T04:47:30;17.90;99.90
19892;DHT22;10108;50.142;8.724;2022-09-09T04:49:56;17.90;99.90
19892;DHT22;10108;50.142;8.724;2022-09-09T04:52:23;18.00;99.90
19892;DHT22;10108;50.142;8.724;2022-09-09T04:54:49;18.20;99.90
19892;DHT22;10108;50.142;8.724;2022-09-09T04:57:15;18.40;99.90
19892;DHT22;10108;50.142;8.724;2022-09-09T04:59:41;18.70;99.90
19892;DHT22;10108;50.142;8.724;2022-09-09T05:02:08;18.80;99.90
19892;DHT22;10108;50.142;8.724;2022-09-09T05:04:34;18.90;99.90
19892;DHT22;10108;50.142;8.724;2022-09-09T05:07:01;19.00;99.90
19892;DHT22;10108;50.142;8.724;2022-09-09T05:09:27;19.10;99.90
19892;DHT22;10108;50.142;8.724;2022-09-09T05:11:54;19.20;99.90
19892;DHT22;10108;50.142;8.724;2022-09-09T05:14:27;19.20;99.90
19892;DHT22;10108;50.142;8.724;2022-09-09T05:16:54;19.30;99.90
19892;DHT22;10108;50.142;8.724;2022-09-09T05:19:22;19.30;99.90
19892;DHT22;10108;50.142;8.724;2022-09-09T05:21:49;19.30;99.90
19892;DHT22;10108;50.142;8.724;2022-09-09T05:24:20;19.30;99.90
19892;DHT22;10108;50.142;8.724;2022-09-09T05:26:47;19.40;99.90
19892;DHT22;10108;50.142;8.724;2022-09-09T05:29:14;19.40;99.90
19892;DHT22;10108;50.142;8.724;2022-09-09T05:31:40;19.50;99.90
19892;DHT22;10108;50.142;8.724;2022-09-09T05:34:11;19.50;99.90
19892;DHT22;10108;50.142;8.724;2022-09-09T05:36:37;19.60;99.90
19892;DHT22;10108;50.142;8.724;2022-09-09T05:39:03;19.80;99.90
19892;DHT22;10108;50.142;8.724;2022-09-09T05:41:31;19.90;99.90
19892;DHT22;10108;50.142;8.724;2022-09-09T05:44:00;19.90;99.90
19892;DHT22;10108;50.142;8.724;2022-09-09T05:46:27;20.10;99.90
19892;DHT22;10108;50.142;8.724;2022-09-09T05:48:54;20.10;99.90
19892;DHT22;10108;50.142;8.724;2022-09-09T05:51:27;20.10;99.90
19892;DHT22;10108;50.142;8.724;2022-09-09T05:53:57;20.10;99.90
19892;DHT22;10108;50.142;8.724;2022-09-09T05:56:29;20.10;99.90
19892;DHT22;10108;50.142;8.724;2022-09-09T05:58:57;20.10;99.90
19892;DHT22;10108;50.142;8.724;2022-09-09T06:01:30;20.10;99.90
19892;DHT22;10108;50.142;8.724;2022-09-09T06:03:58;20.00;99.90
19892;DHT22;10108;50.142;8.724;2022-09-09T06:06:26;19.60;99.90
19892;DHT22;10108;50.142;8.724;2022-09-09T06:08:56;19.30;99.90
19892;DHT22;10108;50.142;8.724;2022-09-09T06:11:32;19.00;99.90
19892;DHT22;10108;50.142;8.724;2022-09-09T06:14:00;18.80;99.90
19892;DHT22;10108;50.142;8.724;2022-09-09T06:16:28;18.70;99.90
19892;DHT22;10108;50.142;8.724;2022-09-09T06:18:56;18.70;99.90
19892;DHT22;10108;50.142;8.724;2022-09-09T06:21:34;18.80;99.90
19892;DHT22;10108;50.142;8.724;2022-09-09T06:24:06;19.00;99.90
19892;DHT22;10108;50.142;8.724;2022-09-09T06:26:35;18.90;99.90
19892;DHT22;10108;50.142;8.724;2022-09-09T06:29:03;18.90;99.90
19892;DHT22;10108;50.142;8.724;2022-09-09T06:31:31;18.80;99.90
19892;DHT22;10108;50.142;8.724;2022-09-09T06:34:07;18.70;99.90
19892;DHT22;10108;50.142;8.724;2022-09-09T06:36:37;18.80;99.90
19892;DHT22;10108;50.142;8.724;2022-09-09T06:39:05;18.90;99.90
19892;DHT22;10108;50.142;8.724;2022-09-09T06:41:33;19.00;99.90
19892;DHT22;10108;50.142;8.724;2022-09-09T06:44:01;18.90;99.90
19892;DHT22;10108;50.142;8.724;2022-09-09T06:46:34;19.00;99.90
19892;DHT22;10108;50.142;8.724;2022-09-09T06:49:01;19.10;99.90
19892;DHT22;10108;50.142;8.724;2022-09-09T06:51:34;19.20;99.90
19892;DHT22;10108;50.142;8.724;2022-09-09T06:54:03;19.30;99.90
19892;DHT22;10108;50.142;8.724;2022-09-09T06:56:32;19.30;99.90
19892;DHT22;10108;50.142;8.724;2022-09-09T06:59:03;19.40;99.90
19892;DHT22;10108;50.142;8.724;2022-09-09T07:01:41;19.50;99.90
19892;DHT22;10108;50.142;8.724;2022-09-09T07:04:12;19.50;99.90
19892;DHT22;10108;50.142;8.724;2022-09-09T07:06:43;19.60;99.90
19892;DHT22;10108;50.142;8.724;2022-09-09T07:09:14;19.70;99.90
19892;DHT22;10108;50.142;8.724;2022-09-09T07:11:48;19.70;99.90
19892;DHT22;10108;50.142;8.724;2022-09-09T07:14:16;19.70;99.90
19892;DHT22;10108;50.142;8.724;2022-09-09T07:16:46;19.70;99.90
19892;DHT22;10108;50.142;8.724;2022-09-09T07:19:14;19.70;99.90
19892;DHT22;10108;50.142;8.724;2022-09-09T07:21:41;19.70;99.90
19892;DHT22;10108;50.142;8.724;2022-09-09T07:24:10;19.60;99.90
19892;DHT22;10108;50.142;8.724;2022-09-09T07:26:39;19.70;99.90
19892;DHT22;10108;50.142;8.724;2022-09-09T07:29:05;19.70;99.90
19892;DHT22;10108;50.142;8.724;2022-09-09T07:31:34;19.80;99.90
19892;DHT22;10108;50.142;8.724;2022-09-09T07:34:02;19.90;99.90
19892;DHT22;10108;50.142;8.724;2022-09-09T07:36:34;20.00;99.90
19892;DHT22;10108;50.142;8.724;2022-09-09T07:39:07;19.90;99.90
19892;DHT22;10108;50.142;8.724;2022-09-09T07:41:35;19.70;99.90
19892;DHT22;10108;50.142;8.724;2022-09-09T07:44:07;19.50;99.90
19892;DHT22;10108;50.142;8.724;2022-09-09T07:46:34;19.40;99.90
19892;DHT22;10108;50.142;8.724;2022-09-09T07:49:01;19.50;99.90
19892;DHT22;10108;50.142;8.724;2022-09-09T07:51:36;19.60;99.90
19892;DHT22;10108;50.142;8.724;2022-09-09T07:54:07;19.80;99.90
19892;DHT22;10108;50.142;8.724;2022-09-09T07:56:37;19.80;99.90
19892;DHT22;10108;50.142;8.724;2022-09-09T07:59:04;19.90;99.90
19892;DHT22;10108;50.142;8.724;2022-09-09T08:01:34;19.80;99.90
19892;DHT22;10108;50.142;8.724;2022-09-09T08:04:05;19.80;99.90
19892;DHT22;10108;50.142;8.724;2022-09-09T08:06:37;19.90;99.90
19892;DHT22;10108;50.142;8.724;2022-09-09T08:09:06;19.90;99.90
19892;DHT22;10108;50.142;8.724;2022-09-09T08:11:32;20.00;99.90
19892;DHT22;10108;50.142;8.724;2022-09-09T08:14:00;20.10;99.90
19892;DHT22;10108;50.142;8.724;2022-09-09T08:16:29;20.20;99.90
19892;DHT22;10108;50.142;8.724;2022-09-09T08:18:56;20.20;99.90
19892;DHT22;10108;50.142;8.724;2022-09-09T08:21:25;20.10;99.90
19892;DHT22;10108;50.142;8.724;2022-09-09T08:23:56;20.10;99.90
19892;DHT22;10108;50.142;8.724;2022-09-09T08:26:35;20.10;99.90
19892;DHT22;10108;50.142;8.724;2022-09-09T08:29:03;20.10;99.90
19892;DHT22;10108;50.142;8.724;2022-09-09T08:31:33;20.10;99.90
19892;DHT22;10108;50.142;8.724;2022-09-09T08:34:00;20.20;99.90
19892;DHT22;10108;50.142;8.724;2022-09-09T08:36:31;20.20;99.90
19892;DHT22;10108;50.142;8.724;2022-09-09T08:39:00;20.40;99.90
19892;DHT22;10108;50.142;8.724;2022-09-09T08:50:19;20.40;99.90
19892;DHT22;10108;50.142;8.724;2022-09-09T08:52:57;20.50;99.90
19892;DHT22;10108;50.142;8.724;2022-09-09T08:55:47;20.60;99.90
19892;DHT22;10108;50.142;8.724;2022-09-09T09:03:50;20.60;99.90
19892;DHT22;10108;50.142;8.724;2022-09-09T09:06:35;20.60;99.90
19892;DHT22;10108;50.142;8.724;2022-09-09T09:12:06;20.50;99.90
19892;DHT22;10108;50.142;8.724;2022-09-09T09:14:37;20.50;99.90
19892;DHT22;10108;50.142;8.724;2022-09-09T09:19:40;20.50;99.90
19892;DHT22;10108;50.142;8.724;2022-09-09T09:25:15;20.60;99.90
19892;DHT22;10108;50.142;8.724;2022-09-09T09:28:03;20.60;99.90
19892;DHT22;10108;50.142;8.724;2022-09-09T09:30:44;20.60;99.90
19892;DHT22;10108;50.142;8.724;2022-09-09T09:35:40;20.70;99.90
19892;DHT22;10108;50.142;8.724;2022-09-09T09:38:22;20.70;99.90
19892;DHT22;10108;50.142;8.724;2022-09-09T09:40:57;20.60;99.90
19892;DHT22;10108;50.142;8.724;2022-09-09T09:43:29;20.60;99.90
19892;DHT22;10108;50.142;8.724;2022-09-09T09:45:58;20.50;99.90
19892;DHT22;10108;50.142;8.724;2022-09-09T09:48:26;20.60;99.90
19892;DHT22;10108;50.142;8.724;2022-09-09T09:51:10;20.50;99.90
19892;DHT22;10108;50.142;8.724;2022-09-09T09:53:40;20.50;99.90
19892;DHT22;10108;50.142;8.724;2022-09-09T09:56:14;20.50;99.90
19892;DHT22;10108;50.142;8.724;2022-09-09T10:01:25;20.40;99.90
19892;DHT22;10108;50.142;8.724;2022-09-09T10:04:19;20.30;99.90
19892;DHT22;10108;50.142;8.724;2022-09-09T10:06:47;20.10;99.90
19892;DHT22;10108;50.142;8.724;2022-09-09T10:09:27;19.80;99.90
19892;DHT22;10108;50.142;8.724;2022-09-09T10:15:02;19.70;99.90
19892;DHT22;10108;50.142;8.724;2022-09-09T10:22:35;19.70;99.90
19892;DHT22;10108;50.142;8.724;2022-09-09T10:30:43;20.20;99.90
19892;DHT22;10108;50.142;8.724;2022-09-09T10:33:32;20.50;99.90
19892;DHT22;10108;50.142;8.724;2022-09-09T10:36:23;20.60;99.90
19892;DHT22;10108;50.142;8.724;2022-09-09T10:39:04;20.70;99.90
19892;DHT22;10108;50.142;8.724;2022-09-09T10:41:58;20.80;99.90
19892;DHT22;10108;50.142;8.724;2022-09-09T10:53:23;21.30;99.90
19892;DHT22;10108;50.142;8.724;2022-09-09T10:56:17;21.30;99.90
19892;DHT22;10108;50.142;8.724;2022-09-09T10:58:52;21.40;99.90
19892;DHT22;10108;50.142;8.724;2022-09-09T11:01:25;21.30;99.90
19892;DHT22;10108;50.142;8.724;2022-09-09T11:03:57;21.10;99.90
19892;DHT22;10108;50.142;8.724;2022-09-09T11:06:31;20.80;99.90
19892;DHT22;10108;50.142;8.724;2022-09-09T11:08:59;20.00;99.90
19892;DHT22;10108;50.142;8.724;2022-09-09T11:11:39;19.30;99.90
19892;DHT22;10108;50.142;8.724;2022-09-09T11:17:04;18.40;99.90
19892;DHT22;10108;50.142;8.724;2022-09-09T11:19:39;18.20;99.90
19892;DHT22;10108;50.142;8.724;2022-09-09T11:23:08;18.20;99.90
19892;DHT22;10108;50.142;8.724;2022-09-09T11:25:16;18.20;99.90
19892;DHT22;10108;50.142;8.724;2022-09-09T11:28:09;18.40;99.90
19892;DHT22;10108;50.142;8.724;2022-09-09T11:36:49;19.00;99.90
19892;DHT22;10108;50.142;8.724;2022-09-09T11:39:35;19.40;99.90
19892;DHT22;10108;50.142;8.724;2022-09-09T11:44:41;19.70;99.90
19892;DHT22;10108;50.142;8.724;2022-09-09T11:47:28;19.90;99.90
19892;DHT22;10108;50.142;8.724;2022-09-09T11:52:43;20.10;99.90
19892;DHT22;10108;50.142;8.724;2022-09-09T11:55:29;20.20;99.90
19892;DHT22;10108;50.142;8.724;2022-09-09T11:57:59;20.30;99.90
19892;DHT22;10108;50.142;8.724;2022-09-09T12:00:36;20.30;99.90
19892;DHT22;10108;50.142;8.724;2022-09-09T12:03:04;20.40;99.90
19892;DHT22;10108;50.142;8.724;2022-09-09T12:05:42;20.50;99.90
19892;DHT22;10108;50.142;8.724;2022-09-09T12:08:16;20.40;99.90
19892;DHT22;10108;50.142;8.724;2022-09-09T12:10:55;20.40;99.90
19892;DHT22;10108;50.142;8.724;2022-09-09T12:13:23;20.40;99.90
19892;DHT22;10108;50.142;8.724;2022-09-09T12:15:56;20.30;99.90
19892;DHT22;10108;50.142;8.724;2022-09-09T12:18:35;20.10;99.90
19892;DHT22;10108;50.142;8.724;2022-09-09T12:21:27;19.80;99.90
19892;DHT22;10108;50.142;8.724;2022-09-09T12:24:02;19.50;99.90
19892;DHT22;10108;50.142;8.724;2022-09-09T12:26:37;19.30;99.90
19892;DHT22;10108;50.142;8.724;2022-09-09T12:32:12;19.30;99.90
19892;DHT22;10108;50.142;8.724;2022-09-09T12:35:10;19.30;99.90
19892;DHT22;10108;50.142;8.724;2022-09-09T12:37:52;19.70;99.90
19892;DHT22;10108;50.142;8.724;2022-09-09T12:40:26;19.80;99.90
19892;DHT22;10108;50.142;8.724;2022-09-09T12:42:53;19.90;99.90
19892;DHT22;10108;50.142;8.724;2022-09-09T12:45:23;20.00;99.90
19892;DHT22;10108;50.142;8.724;2022-09-09T12:50:30;20.20;99.90
19892;DHT22;10108;50.142;8.724;2022-09-09T12:53:06;20.20;99.90
19892;DHT22;10108;50.142;8.724;2022-09-09T12:55:36;20.20;99.90
19892;DHT22;10108;50.142;8.724;2022-09-09T12:58:05;20.20;99.90
19892;DHT22;10108;50.142;8.724;2022-09-09T13:00:33;20.20;99.90
19892;DHT22;10108;50.142;8.724;2022-09-09T13:03:16;19.80;99.90
19892;DHT22;10108;50.142;8.724;2022-09-09T13:05:42;19.10;99.90
19892;DHT22;10108;50.142;8.724;2022-09-09T13:08:10;18.50;99.90
19892;DHT22;10108;50.142;8.724;2022-09-09T13:10:49;17.90;99.90
19892;DHT22;10108;50.142;8.724;2022-09-09T13:13:38;17.80;99.90
19892;DHT22;10108;50.142;8.724;2022-09-09T13:16:17;17.60;99.90
19892;DHT22;10108;50.142;8.724;2022-09-09T13:18:44;17.50;99.90
19892;DHT22;10108;50.142;8.724;2022-09-09T13:21:10;17.40;99.90
19892;DHT22;10108;50.142;8.724;2022-09-09T13:23:37;17.50;99.90
19892;DHT22;10108;50.142;8.724;2022-09-09T13:26:06;17.50;99.90
19892;DHT22;10108;50.142;8.724;2022-09-09T13:28:45;17.60;99.90
19892;DHT22;10108;50.142;8.724;2022-09-09T13:31:29;17.60;99.90
19892;DHT22;10108;50.142;8.724;2022-09-09T13:33:56;17.60;99.90
19892;DHT22;10108;50.142;8.724;2022-09-09T13:36:31;17.80;99.90
19892;DHT22;10108;50.142;8.724;2022-09-09T13:39:02;17.90;99.90
19892;DHT22;10108;50.142;8.724;2022-09-09T13:41:34;18.00;99.90
19892;DHT22;10108;50.142;8.724;2022-09-09T13:44:04;18.10;99.90
19892;DHT22;10108;50.142;8.724;2022-09-09T13:46:34;18.20;99.90
19892;DHT22;10108;50.142;8.724;2022-09-09T13:54:06;18.60;99.90
19892;DHT22;10108;50.142;8.724;2022-09-09T13:56:33;18.70;99.90
19892;DHT22;10108;50.142;8.724;2022-09-09T13:59:02;19.00;99.90
19892;DHT22;10108;50.142;8.724;2022-09-09T14:01:28;19.10;99.90
19892;DHT22;10108;50.142;8.724;2022-09-09T14:03:54;19.10;99.90
19892;DHT22;10108;50.142;8.724;2022-09-09T14:06:21;19.20;99.90
19892;DHT22;10108;50.142;8.724;2022-09-09T14:08:50;19.30;99.90
19892;DHT22;10108;50.142;8.724;2022-09-09T14:11:17;19.50;99.90
19892;DHT22;10108;50.142;8.724;2022-09-09T14:13:44;19.60;99.90
19892;DHT22;10108;50.142;8.724;2022-09-09T14:16:10;19.70;99.90
19892;DHT22;10108;50.142;8.724;2022-09-09T14:18:36;19.80;99.90
19892;DHT22;10108;50.142;8.724;2022-09-09T14:21:03;19.80;99.90
19892;DHT22;10108;50.142;8.724;2022-09-09T14:23:29;19.70;99.90
19892;DHT22;10108;50.142;8.724;2022-09-09T14:25:56;19.70;99.90
19892;DHT22;10108;50.142;8.724;2022-09-09T14:28:22;19.70;99.90
19892;DHT22;10108;50.142;8.724;2022-09-09T14:30:48;19.60;99.90
19892;DHT22;10108;50.142;8.724;2022-09-09T14:33:15;19.50;99.90
19892;DHT22;10108;50.142;8.724;2022-09-09T14:35:42;19.40;99.90
19892;DHT22;10108;50.142;8.724;2022-09-09T14:38:08;19.40;99.90
19892;DHT22;10108;50.142;8.724;2022-09-09T14:40:36;19.40;99.90
19892;DHT22;10108;50.142;8.724;2022-09-09T14:43:03;19.40;99.90
19892;DHT22;10108;50.142;8.724;2022-09-09T14:45:30;19.40;99.90
19892;DHT22;10108;50.142;8.724;2022-09-09T14:47:56;19.40;99.90
19892;DHT22;10108;50.142;8.724;2022-09-09T14:50:23;19.40;99.90
19892;DHT22;10108;50.142;8.724;2022-09-09T14:52:49;19.40;99.90
19892;DHT22;10108;50.142;8.724;2022-09-09T14:55:16;19.30;99.90
19892;DHT22;10108;50.142;8.724;2022-09-09T14:57:43;19.40;99.90
19892;DHT22;10108;50.142;8.724;2022-09-09T15:00:10;19.30;99.90
19892;DHT22;10108;50.142;8.724;2022-09-09T15:02:37;19.30;99.90
19892;DHT22;10108;50.142;8.724;2022-09-09T15:05:04;19.20;99.90
19892;DHT22;10108;50.142;8.724;2022-09-09T15:07:30;19.30;99.90
19892;DHT22;10108;50.142;8.724;2022-09-09T15:09:58;19.30;99.90
19892;DHT22;10108;50.142;8.724;2022-09-09T15:12:24;19.30;99.90
19892;DHT22;10108;50.142;8.724;2022-09-09T15:14:50;19.30;99.90
19892;DHT22;10108;50.142;8.724;2022-09-09T15:17:16;19.40;99.90
19892;DHT22;10108;50.142;8.724;2022-09-09T15:19:42;19.40;99.90
19892;DHT22;10108;50.142;8.724;2022-09-09T15:22:09;19.40;99.90
19892;DHT22;10108;50.142;8.724;2022-09-09T15:24:35;19.50;99.90
19892;DHT22;10108;50.142;8.724;2022-09-09T15:27:01;19.60;99.90
19892;DHT22;10108;50.142;8.724;2022-09-09T15:29:28;19.70;99.90
19892;DHT22;10108;50.142;8.724;2022-09-09T15:31:54;19.80;99.90
19892;DHT22;10108;50.142;8.724;2022-09-09T15:34:23;19.90;99.90
19892;DHT22;10108;50.142;8.724;2022-09-09T15:36:50;19.90;99.90
19892;DHT22;10108;50.142;8.724;2022-09-09T15:39:17;19.90;99.90
19892;DHT22;10108;50.142;8.724;2022-09-09T15:41:45;20.00;99.90
19892;DHT22;10108;50.142;8.724;2022-09-09T15:44:12;20.10;99.90
19892;DHT22;10108;50.142;8.724;2022-09-09T15:46:46;20.10;99.90
19892;DHT22;10108;50.142;8.724;2022-09-09T15:49:19;20.10;99.90
19892;DHT22;10108;50.142;8.724;2022-09-09T15:51:47;20.10;99.90
19892;DHT22;10108;50.142;8.724;2022-09-09T15:54:16;20.10;99.90
19892;DHT22;10108;50.142;8.724;2022-09-09T15:56:44;20.10;99.90
19892;DHT22;10108;50.142;8.724;2022-09-09T15:59:11;20.00;99.90
19892;DHT22;10108;50.142;8.724;2022-09-09T16:01:38;19.90;99.90
19892;DHT22;10108;50.142;8.724;2022-09-09T16:04:05;19.90;99.90
19892;DHT22;10108;50.142;8.724;2022-09-09T16:06:32;19.80;99.90
19892;DHT22;10108;50.142;8.724;2022-09-09T16:08:59;19.70;99.90
19892;DHT22;10108;50.142;8.724;2022-09-09T16:11:32;19.70;99.90
19892;DHT22;10108;50.142;8.724;2022-09-09T16:13:59;19.60;99.90
19892;DHT22;10108;50.142;8.724;2022-09-09T16:16:27;19.60;99.90
19892;DHT22;10108;50.142;8.724;2022-09-09T16:19:13;19.70;99.90
19892;DHT22;10108;50.142;8.724;2022-09-09T16:21:49;19.60;99.90
19892;DHT22;10108;50.142;8.724;2022-09-09T16:24:18;19.60;99.90
19892;DHT22;10108;50.142;8.724;2022-09-09T16:26:48;19.70;99.90
19892;DHT22;10108;50.142;8.724;2022-09-09T16:29:17;19.70;99.90
19892;DHT22;10108;50.142;8.724;2022-09-09T16:31:44;19.70;99.90
19892;DHT22;10108;50.142;8.724;2022-09-09T16:34:11;19.70;99.90
19892;DHT22;10108;50.142;8.724;2022-09-09T16:36:39;19.70;99.90
19892;DHT22;10108;50.142;8.724;2022-09-09T16:39:11;19.70;99.90
19892;DHT22;10108;50.142;8.724;2022-09-09T16:41:38;19.70;99.90
19892;DHT22;10108;50.142;8.724;2022-09-09T16:44:07;19.70;99.90
19892;DHT22;10108;50.142;8.724;2022-09-09T16:46:35;19.70;99.90
19892;DHT22;10108;50.142;8.724;2022-09-09T16:49:03;19.70;99.90
19892;DHT22;10108;50.142;8.724;2022-09-09T16:51:44;19.90;99.90
19892;DHT22;10108;50.142;8.724;2022-09-09T16:54:11;20.00;99.90
19892;DHT22;10108;50.142;8.724;2022-09-09T16:56:41;19.90;99.90
19892;DHT22;10108;50.142;8.724;2022-09-09T16:59:10;19.80;99.90
19892;DHT22;10108;50.142;8.724;2022-09-09T17:01:38;19.70;99.90
19892;DHT22;10108;50.142;8.724;2022-09-09T17:04:12;19.70;99.90
19892;DHT22;10108;50.142;8.724;2022-09-09T17:06:39;19.70;99.90
19892;DHT22;10108;50.142;8.724;2022-09-09T17:09:10;19.70;99.90
19892;DHT22;10108;50.142;8.724;2022-09-09T17:11:38;19.70;99.90
19892;DHT22;10108;50.142;8.724;2022-09-09T17:14:05;19.70;99.90
19892;DHT22;10108;50.142;8.724;2022-09-09T17:16:33;19.70;99.90
19892;DHT22;10108;50.142;8.724;2022-09-09T17:19:00;19.70;99.90
19892;DHT22;10108;50.142;8.724;2022-09-09T17:21:28;19.70;99.90
19892;DHT22;10108;50.142;8.724;2022-09-09T17:23:55;19.70;99.90
19892;DHT22;10108;50.142;8.724;2022-09-09T17:26:24;19.60;99.90
19892;DHT22;10108;50.142;8.724;2022-09-09T17:28:53;19.50;99.90
19892;DHT22;10108;50.142;8.724;2022-09-09T17:31:20;19.50;99.90
19892;DHT22;10108;50.142;8.724;2022-09-09T17:33:48;19.50;99.90
19892;DHT22;10108;50.142;8.724;2022-09-09T17:36:20;19.40;99.90
19892;DHT22;10108;50.142;8.724;2022-09-09T17:38:47;19.30;99.90
19892;DHT22;10108;50.142;8.724;2022-09-09T17:41:25;19.20;99.90
19892;DHT22;10108;50.142;8.724;2022-09-09T17:43:52;19.20;99.90
19892;DHT22;10108;50.142;8.724;2022-09-09T17:46:23;19.10;99.90
19892;DHT22;10108;50.142;8.724;2022-09-09T17:48:51;19.00;99.90
19892;DHT22;10108;50.142;8.724;2022-09-09T17:51:19;19.00;99.90
19892;DHT22;10108;50.142;8.724;2022-09-09T17:53:49;19.00;99.90